createdAt,value
2023-07-24T00:00:18.459Z,8.27
2023-07-24T00:02:45.078Z,9.55
2023-07-24T00:05:11.731Z,9.10
2023-07-24T00:07:38.350Z,8.77
2023-07-24T00:10:05.432Z,8.77
2023-07-24T00:12:32.757Z,9.45
2023-07-24T00:14:59.385Z,8.68
2023-07-24T00:17:26.255Z,7.85
2023-07-24T00:19:53.161Z,7.55
2023-07-24T00:22:19.802Z,8.40
2023-07-24T00:24:46.483Z,7.93
2023-07-24T00:27:14.815Z,8.45
2023-07-24T00:29:41.485Z,8.18
2023-07-24T00:32:08.509Z,9.65
2023-07-24T00:34:35.904Z,9.07
2023-07-24T00:37:03.067Z,8.93
2023-07-24T00:39:30.714Z,9.32
2023-07-24T00:41:57.778Z,8.05
2023-07-24T00:44:24.499Z,8.35
2023-07-24T00:46:51.340Z,9.55
2023-07-24T00:49:20.942Z,9.35
2023-07-24T00:51:47.651Z,9.70
2023-07-24T00:54:17.508Z,8.48
2023-07-24T00:56:46.071Z,8.40
2023-07-24T00:59:12.814Z,8.43
2023-07-24T01:01:40.956Z,8.98
2023-07-24T01:04:08.111Z,8.88
2023-07-24T01:06:34.782Z,8.52
2023-07-24T01:09:03.435Z,8.38
2023-07-24T01:11:35.873Z,8.35
2023-07-24T01:14:07.664Z,8.15
2023-07-24T01:16:37.774Z,8.32
2023-07-24T01:19:12.562Z,8.25
2023-07-24T01:21:59.979Z,8.52
2023-07-24T01:25:07.513Z,9.40
2023-07-24T01:27:35.462Z,9.38
2023-07-24T01:30:02.130Z,8.77
2023-07-24T01:32:28.852Z,9.18
2023-07-24T01:34:55.614Z,8.45
2023-07-24T01:37:23.450Z,8.73
2023-07-24T01:39:51.133Z,8.35
2023-07-24T01:42:18.037Z,8.60
2023-07-24T01:44:44.739Z,8.13
2023-07-24T01:47:11.418Z,8.15
2023-07-24T01:49:38.180Z,8.65
2023-07-24T01:52:05.183Z,9.57
2023-07-24T01:54:31.814Z,9.40
2023-07-24T01:56:58.779Z,10.25
2023-07-24T01:59:25.432Z,9.57
2023-07-24T02:01:52.331Z,8.73
2023-07-24T02:04:19.039Z,8.90
2023-07-24T02:06:47.657Z,8.70
2023-07-24T02:09:14.410Z,8.95
2023-07-24T02:11:41.117Z,8.52
2023-07-24T02:14:08.405Z,9.20
2023-07-24T02:16:35.238Z,9.20
2023-07-24T02:19:01.886Z,9.40
2023-07-24T02:21:28.608Z,8.52
2023-07-24T02:23:55.280Z,8.93
2023-07-24T02:26:21.923Z,8.57
2023-07-24T02:28:48.541Z,9.00
2023-07-24T02:31:15.202Z,10.35
2023-07-24T02:33:41.848Z,9.23
2023-07-24T02:36:08.658Z,9.38
2023-07-24T02:38:35.292Z,8.50
2023-07-24T02:41:01.982Z,9.20
2023-07-24T02:43:29.092Z,8.77
2023-07-24T02:45:55.733Z,9.20
2023-07-24T02:48:23.667Z,9.25
2023-07-24T02:50:52.588Z,8.98
2023-07-24T02:53:19.296Z,10.10
2023-07-24T02:55:45.957Z,8.63
2023-07-24T02:58:14.408Z,9.95
2023-07-24T03:00:41.357Z,8.65
2023-07-24T03:03:08.334Z,9.23
2023-07-24T03:05:35.552Z,9.25
2023-07-24T03:08:02.325Z,8.32
2023-07-24T03:10:30.815Z,9.30
2023-07-24T03:12:57.428Z,8.10
2023-07-24T03:15:24.071Z,9.75
2023-07-24T03:17:50.808Z,9.57
2023-07-24T03:20:20.578Z,9.13
2023-07-24T03:22:47.219Z,10.68
2023-07-24T03:25:14.470Z,10.90
2023-07-24T03:27:41.172Z,9.40
2023-07-24T03:30:08.279Z,8.80
2023-07-24T03:32:37.500Z,8.85
2023-07-24T03:35:06.237Z,8.60
2023-07-24T03:37:33.149Z,9.70
2023-07-24T03:40:00.153Z,9.25
2023-07-24T03:42:29.454Z,8.57
2023-07-24T03:44:56.806Z,8.98
2023-07-24T03:47:24.308Z,9.18
2023-07-24T03:49:51.435Z,9.55
2023-07-24T03:52:18.160Z,9.20
2023-07-24T03:54:45.340Z,8.95
2023-07-24T03:57:11.971Z,9.20
2023-07-24T03:59:38.613Z,9.13
2023-07-24T04:02:07.349Z,9.35
2023-07-24T04:04:35.167Z,8.88
2023-07-24T04:07:04.713Z,9.77
2023-07-24T04:09:31.725Z,8.60
2023-07-24T04:11:58.413Z,8.52
2023-07-24T04:14:25.052Z,9.52
2023-07-24T04:16:51.730Z,9.05
2023-07-24T04:19:18.365Z,8.55
2023-07-24T04:21:45.083Z,9.63
2023-07-24T04:24:11.746Z,10.63
2023-07-24T04:26:38.452Z,10.43
2023-07-24T04:29:05.275Z,8.80
2023-07-24T04:31:32.022Z,9.02
2023-07-24T04:33:58.654Z,9.20
2023-07-24T04:36:25.320Z,9.82
2023-07-24T04:38:52.078Z,9.23
2023-07-24T04:41:18.842Z,9.93
2023-07-24T04:43:48.031Z,10.55
2023-07-24T04:46:14.676Z,8.52
2023-07-24T04:48:41.299Z,9.98
2023-07-24T04:51:08.196Z,7.85
2023-07-24T04:53:34.942Z,8.88
2023-07-24T04:56:01.723Z,11.05
2023-07-24T04:58:28.431Z,10.93
2023-07-24T05:00:55.055Z,9.75
2023-07-24T05:03:21.752Z,9.48
2023-07-24T05:05:57.737Z,9.90
2023-07-24T05:08:24.586Z,8.82
2023-07-24T05:10:58.380Z,10.40
2023-07-24T05:13:25.225Z,9.77
2023-07-24T05:15:51.925Z,10.65
2023-07-24T05:18:18.815Z,10.68
2023-07-24T05:20:49.783Z,8.73
2023-07-24T05:23:16.528Z,10.05
2023-07-24T05:25:46.142Z,10.55
2023-07-24T05:28:12.790Z,9.65
2023-07-24T05:30:39.474Z,11.02
2023-07-24T05:33:06.187Z,10.40
2023-07-24T05:35:32.861Z,9.63
2023-07-24T05:37:59.534Z,10.82
2023-07-24T05:40:26.218Z,9.43
2023-07-24T05:42:52.845Z,10.63
2023-07-24T05:45:19.598Z,10.25
2023-07-24T05:47:46.295Z,9.77
2023-07-24T05:50:15.141Z,10.13
2023-07-24T05:52:41.938Z,9.90
2023-07-24T05:55:09.181Z,10.43
2023-07-24T05:57:36.025Z,10.82
2023-07-24T06:00:04.259Z,9.13
2023-07-24T06:02:38.014Z,9.57
2023-07-24T06:05:07.843Z,9.27
2023-07-24T06:07:34.545Z,12.20
2023-07-24T06:10:01.238Z,10.23
2023-07-24T06:12:28.073Z,9.07
2023-07-24T06:14:54.712Z,9.10
2023-07-24T06:17:21.517Z,10.63
2023-07-24T06:19:48.184Z,10.07
2023-07-24T06:22:14.802Z,10.38
2023-07-24T06:24:41.520Z,10.82
2023-07-24T06:27:08.202Z,10.30
2023-07-24T06:29:34.818Z,8.02
2023-07-24T06:32:01.557Z,8.05
2023-07-24T06:34:28.176Z,8.27
2023-07-24T06:39:22.109Z,7.07
2023-07-24T06:41:48.716Z,9.07
2023-07-24T06:44:15.558Z,8.13
2023-07-24T06:46:42.274Z,7.47
2023-07-24T06:49:08.983Z,6.43
2023-07-24T06:51:35.676Z,7.57
2023-07-24T06:54:02.326Z,6.47
2023-07-24T06:56:29.219Z,8.40
2023-07-24T06:58:56.082Z,7.45
2023-07-24T07:01:22.746Z,8.77
2023-07-24T07:03:49.466Z,7.72
2023-07-24T07:08:46.206Z,7.03
2023-07-24T07:11:12.836Z,6.00
2023-07-24T07:13:39.453Z,6.07
2023-07-24T07:16:06.161Z,5.70
2023-07-24T07:18:32.866Z,6.28
2023-07-24T07:20:59.745Z,5.82
2023-07-24T07:23:26.439Z,5.40
2023-07-24T07:25:53.052Z,5.80
2023-07-24T07:28:20.129Z,5.53
2023-07-24T07:30:46.935Z,5.20
2023-07-24T07:33:13.749Z,5.68
2023-07-24T07:35:40.376Z,5.97
2023-07-24T07:38:07.029Z,5.40
2023-07-24T07:40:34.069Z,4.90
2023-07-24T07:43:00.687Z,5.05
2023-07-24T07:45:27.337Z,5.20
2023-07-24T07:47:54.664Z,5.90
2023-07-24T07:50:21.355Z,6.18
2023-07-24T07:52:51.694Z,6.78
2023-07-24T07:55:19.492Z,6.50
2023-07-24T07:57:46.147Z,5.07
2023-07-24T08:00:13.059Z,6.30
2023-07-24T08:02:41.110Z,5.05
2023-07-24T08:05:16.313Z,6.93
2023-07-24T08:07:47.860Z,5.75
2023-07-24T08:10:16.820Z,5.10
2023-07-24T08:12:44.828Z,5.88
2023-07-24T08:15:11.835Z,6.45
2023-07-24T08:17:39.017Z,5.85
2023-07-24T08:20:07.208Z,6.38
2023-07-24T08:22:34.111Z,7.32
2023-07-24T08:25:00.776Z,6.15
2023-07-24T08:27:27.463Z,6.03
2023-07-24T08:29:54.307Z,6.60
2023-07-24T08:32:21.369Z,5.13
2023-07-24T08:34:48.429Z,5.85
2023-07-24T08:37:15.070Z,6.30
2023-07-24T08:39:42.488Z,6.35
2023-07-24T08:42:13.171Z,6.63
2023-07-24T08:44:40.575Z,5.97
2023-07-24T08:47:12.248Z,5.65
2023-07-24T08:49:43.431Z,5.88
2023-07-24T08:52:12.563Z,6.35
2023-07-24T08:54:46.803Z,5.55
2023-07-24T08:57:13.475Z,6.05
2023-07-24T08:59:40.283Z,6.75
2023-07-24T09:02:07.080Z,6.72
2023-07-24T09:04:33.821Z,5.22
2023-07-24T09:07:00.542Z,5.75
2023-07-24T09:09:31.380Z,5.80
2023-07-24T09:11:59.420Z,4.85
2023-07-24T09:14:29.685Z,5.20
2023-07-24T09:17:08.800Z,5.82
2023-07-24T09:19:35.563Z,6.03
2023-07-24T09:22:19.511Z,6.35
2023-07-24T09:24:53.986Z,6.93
2023-07-24T09:27:21.255Z,5.65
2023-07-24T09:29:47.898Z,6.47
2023-07-24T09:32:22.708Z,6.07
2023-07-24T09:34:52.027Z,6.40
2023-07-24T09:37:34.371Z,5.38
2023-07-24T09:40:01.180Z,6.13
2023-07-24T09:42:44.761Z,4.80
2023-07-24T09:47:55.828Z,6.20
2023-07-24T09:50:24.300Z,6.32
2023-07-24T09:52:51.466Z,6.75
2023-07-24T09:55:30.276Z,6.47
2023-07-24T09:57:57.968Z,6.85
2023-07-24T10:00:25.291Z,6.50
2023-07-24T10:02:52.125Z,6.13
2023-07-24T10:05:18.984Z,5.70
2023-07-24T10:07:45.790Z,5.70
2023-07-24T10:10:12.820Z,6.18
2023-07-24T10:12:39.819Z,5.07
2023-07-24T10:15:07.112Z,4.57
2023-07-24T10:17:38.164Z,5.80
2023-07-24T10:20:09.980Z,6.15
2023-07-24T10:22:38.835Z,6.15
2023-07-24T10:25:06.767Z,6.53
2023-07-24T10:27:37.721Z,5.93
2023-07-24T10:30:18.607Z,6.47
2023-07-24T10:32:55.508Z,6.13
2023-07-24T10:35:23.907Z,5.35
2023-07-24T10:38:00.373Z,6.30
2023-07-24T10:40:26.984Z,6.55
2023-07-24T10:43:06.994Z,5.60
2023-07-24T10:45:49.508Z,4.97
2023-07-24T10:48:20.003Z,4.90
2023-07-24T10:50:51.556Z,5.63
2023-07-24T10:53:22.334Z,4.88
2023-07-24T10:55:49.170Z,5.85
2023-07-24T10:58:18.379Z,6.75
2023-07-24T11:00:45.459Z,6.10
2023-07-24T11:03:13.387Z,7.38
2023-07-24T11:05:41.804Z,9.60
2023-07-24T11:08:19.234Z,8.70
2023-07-24T11:10:53.450Z,6.63
2023-07-24T11:13:22.605Z,7.03
2023-07-24T11:15:50.335Z,7.93
2023-07-24T11:18:17.466Z,7.72
2023-07-24T11:20:51.318Z,6.00
2023-07-24T11:23:18.451Z,6.38
2023-07-24T11:25:45.806Z,6.22
2023-07-24T11:28:13.741Z,6.03
2023-07-24T11:30:40.730Z,6.10
2023-07-24T11:33:09.116Z,5.38
2023-07-24T11:35:37.216Z,6.13
2023-07-24T11:38:04.478Z,6.28
2023-07-24T11:40:33.204Z,6.32
2023-07-24T11:42:59.812Z,5.32
2023-07-24T11:45:26.508Z,4.65
2023-07-24T11:47:55.066Z,6.15
2023-07-24T11:50:23.131Z,5.03
2023-07-24T11:52:51.287Z,4.97
2023-07-24T11:55:32.107Z,4.82
2023-07-24T11:58:02.878Z,4.57
2023-07-24T12:00:29.568Z,4.75
2023-07-24T12:03:05.168Z,5.80
2023-07-24T12:05:43.005Z,4.80
2023-07-24T12:08:12.013Z,4.60
2023-07-24T12:10:40.469Z,4.60
2023-07-24T12:13:07.832Z,3.60
2023-07-24T12:15:36.365Z,3.83
2023-07-24T12:18:05.410Z,3.78
2023-07-24T12:20:32.419Z,4.85
2023-07-24T12:22:59.312Z,4.75
2023-07-24T12:25:26.054Z,4.07
2023-07-24T12:27:52.736Z,4.35
2023-07-24T12:30:20.868Z,3.80
2023-07-24T12:32:47.568Z,4.13
2023-07-24T12:35:16.937Z,3.75
2023-07-24T12:37:44.380Z,4.00
2023-07-24T12:40:11.332Z,4.03
2023-07-24T12:42:38.069Z,3.60
2023-07-24T12:45:05.188Z,3.67
2023-07-24T12:47:32.421Z,3.58
2023-07-24T12:50:02.127Z,3.45
2023-07-24T12:52:30.119Z,3.90
2023-07-24T12:55:02.378Z,4.05
2023-07-24T12:57:29.936Z,3.88
2023-07-24T12:59:56.635Z,3.97
2023-07-24T13:02:23.317Z,3.55
2023-07-24T13:04:49.943Z,4.03
2023-07-24T13:07:17.042Z,3.70
2023-07-24T13:09:43.950Z,3.20
2023-07-24T13:12:11.359Z,4.03
2023-07-24T13:14:40.229Z,3.42
2023-07-24T13:19:36.320Z,4.13
2023-07-24T13:22:04.004Z,2.92
2023-07-24T13:24:30.670Z,3.70
2023-07-24T13:26:57.282Z,3.97
2023-07-24T13:29:25.594Z,3.88
2023-07-24T13:31:55.898Z,3.10
2023-07-24T13:34:24.621Z,2.65
2023-07-24T13:36:51.234Z,4.30
2023-07-24T13:39:18.193Z,3.03
2023-07-24T13:41:44.832Z,3.03
2023-07-24T13:44:11.795Z,2.53
2023-07-24T13:46:40.292Z,3.20
2023-07-24T13:49:07.720Z,3.40
2023-07-24T13:51:34.571Z,3.60
2023-07-24T13:54:02.868Z,3.75
2023-07-24T13:56:32.200Z,2.92
2023-07-24T13:58:58.891Z,3.33
2023-07-24T14:01:25.582Z,3.17
2023-07-24T14:03:52.403Z,4.35
2023-07-24T14:06:19.157Z,3.85
2023-07-24T14:08:46.016Z,2.58
2023-07-24T14:11:12.666Z,3.55
2023-07-24T14:13:39.327Z,3.83
2023-07-24T14:16:06.028Z,3.92
2023-07-24T14:18:32.704Z,3.75
2023-07-24T14:21:00.658Z,3.20
2023-07-24T14:23:27.418Z,4.15
2023-07-24T14:25:54.012Z,3.75
2023-07-24T14:28:20.682Z,3.03
2023-07-24T14:30:47.356Z,3.75
2023-07-24T14:33:13.996Z,3.65
2023-07-24T14:35:40.697Z,4.03
2023-07-24T14:38:07.338Z,4.00
2023-07-24T14:40:33.950Z,4.75
2023-07-24T14:43:00.666Z,4.65
2023-07-24T14:45:27.520Z,4.28
2023-07-24T14:47:54.257Z,3.85
2023-07-24T14:50:20.983Z,3.08
2023-07-24T14:52:47.647Z,3.50
2023-07-24T14:55:15.596Z,3.97
2023-07-24T14:57:42.203Z,4.80
2023-07-24T15:00:09.690Z,4.28
2023-07-24T15:02:36.384Z,3.75
2023-07-24T15:05:03.075Z,3.70
2023-07-24T15:07:29.790Z,4.50
2023-07-24T15:09:57.421Z,4.55
2023-07-24T15:12:24.087Z,4.78
2023-07-24T15:14:50.728Z,4.35
2023-07-24T15:17:19.279Z,4.10
2023-07-24T15:19:46.060Z,4.75
2023-07-24T15:22:12.710Z,5.43
2023-07-24T15:24:40.934Z,3.70
2023-07-24T15:27:09.785Z,4.35
2023-07-24T15:29:37.662Z,3.88
2023-07-24T15:32:04.468Z,4.88
2023-07-24T15:34:31.461Z,4.13
2023-07-24T15:36:58.133Z,3.60
2023-07-24T15:39:24.883Z,4.00
2023-07-24T15:41:51.510Z,4.22
2023-07-24T15:44:19.138Z,5.07
2023-07-24T15:46:47.929Z,4.32
2023-07-24T15:49:15.122Z,4.65
2023-07-24T15:51:41.828Z,3.80
2023-07-24T15:54:11.116Z,4.93
2023-07-24T15:56:39.709Z,4.75
2023-07-24T15:59:06.616Z,3.65
2023-07-24T16:01:33.515Z,4.45
2023-07-24T16:04:00.586Z,3.78
2023-07-24T16:06:27.286Z,4.65
2023-07-24T16:08:53.908Z,4.55
2023-07-24T16:11:20.647Z,4.25
2023-07-24T16:13:47.371Z,3.85
2023-07-24T16:16:15.723Z,3.60
2023-07-24T16:18:42.708Z,4.20
2023-07-24T16:21:09.497Z,4.57
2023-07-24T16:23:38.313Z,3.97
2023-07-24T16:26:05.144Z,4.03
2023-07-24T16:28:31.839Z,3.38
2023-07-24T16:30:59.142Z,4.20
2023-07-24T16:33:26.098Z,3.50
2023-07-24T16:35:53.207Z,3.47
2023-07-24T16:38:20.145Z,3.22
2023-07-24T16:40:47.214Z,3.25
2023-07-24T16:43:13.856Z,3.67
2023-07-24T16:45:40.518Z,3.63
2023-07-24T16:48:07.425Z,4.57
2023-07-24T16:50:36.129Z,3.95
2023-07-24T16:53:03.560Z,4.32
2023-07-24T16:55:30.684Z,4.25
2023-07-24T16:57:57.759Z,4.03
2023-07-24T17:00:24.437Z,4.07
2023-07-24T17:02:51.190Z,3.70
2023-07-24T17:05:17.962Z,4.13
2023-07-24T17:07:44.612Z,3.80
2023-07-24T17:10:11.257Z,3.38
2023-07-24T17:12:37.876Z,4.80
2023-07-24T17:15:04.759Z,4.00
2023-07-24T17:17:32.434Z,5.03
2023-07-24T17:19:59.178Z,4.35
2023-07-24T17:22:25.880Z,4.22
2023-07-24T17:24:54.309Z,3.65
2023-07-24T17:27:21.197Z,3.92
2023-07-24T17:29:47.884Z,4.45
2023-07-24T17:32:14.800Z,4.13
2023-07-24T17:34:42.266Z,4.40
2023-07-24T17:37:09.022Z,4.03
2023-07-24T17:39:35.710Z,3.55
2023-07-24T17:42:02.664Z,4.35
2023-07-24T17:44:29.305Z,3.70
2023-07-24T17:46:55.914Z,3.30
2023-07-24T17:49:22.561Z,3.88
2023-07-24T17:51:49.427Z,3.92
2023-07-24T17:54:16.076Z,4.20
2023-07-24T17:56:42.783Z,3.50
2023-07-24T17:59:09.418Z,3.72
2023-07-24T18:01:36.385Z,2.95
2023-07-24T18:04:08.953Z,2.50
2023-07-24T18:06:35.619Z,3.70
2023-07-24T18:09:02.812Z,3.40
2023-07-24T18:11:29.702Z,3.20
2023-07-24T18:13:56.601Z,2.78
2023-07-24T18:16:23.564Z,3.50
2023-07-24T18:18:50.190Z,2.22
2023-07-24T18:21:16.786Z,2.85
2023-07-24T18:23:43.402Z,2.60
2023-07-24T18:26:10.759Z,2.92
2023-07-24T18:28:37.355Z,2.67
2023-07-24T18:31:04.039Z,2.80
2023-07-24T18:33:30.712Z,2.60
2023-07-24T18:35:57.410Z,2.38
2023-07-24T18:38:24.037Z,2.92
2023-07-24T18:40:55.494Z,2.58
2023-07-24T18:43:22.184Z,2.67
2023-07-24T18:45:49.014Z,2.80
2023-07-24T18:48:16.036Z,2.85
2023-07-24T18:50:44.454Z,2.80
2023-07-24T18:53:11.462Z,2.83
2023-07-24T18:55:39.477Z,2.90
2023-07-24T18:58:06.130Z,2.70
2023-07-24T19:00:32.840Z,2.90
2023-07-24T19:02:59.563Z,2.65
2023-07-24T19:05:26.228Z,3.20
2023-07-24T19:07:52.893Z,2.80
2023-07-24T19:10:19.538Z,3.38
2023-07-24T19:12:46.489Z,3.30
2023-07-24T19:15:13.122Z,3.15
2023-07-24T19:17:41.881Z,3.80
2023-07-24T19:20:09.997Z,3.75
2023-07-24T19:22:37.006Z,2.17
2023-07-24T19:25:07.148Z,3.92
2023-07-24T19:27:34.633Z,3.28
2023-07-24T19:30:03.698Z,3.22
2023-07-24T19:32:35.340Z,3.30
2023-07-24T19:35:04.364Z,2.70
2023-07-24T19:37:31.055Z,3.13
2023-07-24T19:39:57.698Z,3.50
2023-07-24T19:42:24.294Z,2.75
2023-07-24T19:44:50.992Z,2.90
2023-07-24T19:47:17.848Z,2.85
2023-07-24T19:49:44.580Z,2.67
2023-07-24T19:52:11.174Z,3.25
2023-07-24T19:54:37.837Z,3.22
2023-07-24T19:57:04.745Z,3.00
2023-07-24T19:59:31.581Z,3.25
2023-07-24T20:01:58.652Z,7.95
2023-07-24T20:04:25.915Z,3.92
2023-07-24T20:06:52.517Z,4.03
2023-07-24T20:09:19.256Z,3.72
2023-07-24T20:11:48.901Z,3.53
2023-07-24T20:14:16.285Z,4.07
2023-07-24T20:16:42.923Z,3.05
2023-07-24T20:19:09.574Z,1.98
2023-07-24T20:21:36.196Z,2.65
2023-07-24T20:24:10.701Z,3.05
2023-07-24T20:26:37.704Z,3.28
2023-07-24T20:29:04.832Z,3.55
2023-07-24T20:31:32.095Z,4.18
2023-07-24T20:33:59.135Z,3.13
2023-07-24T20:36:25.809Z,2.95
2023-07-24T20:43:05.984Z,3.72
2023-07-24T20:45:32.683Z,2.55
2023-07-24T20:47:59.550Z,2.70
2023-07-24T20:50:26.374Z,3.22
2023-07-24T20:52:53.111Z,3.30
2023-07-24T20:55:23.252Z,3.03
2023-07-24T20:57:49.970Z,3.45
2023-07-24T21:00:16.612Z,3.65
2023-07-24T21:02:43.328Z,3.15
2023-07-24T21:05:10.512Z,3.28
2023-07-24T21:07:37.179Z,3.42
2023-07-24T21:10:03.907Z,3.90
2023-07-24T21:12:30.558Z,3.47
2023-07-24T21:14:57.234Z,3.28
2023-07-24T21:17:24.086Z,3.92
2023-07-24T21:19:50.718Z,3.20
2023-07-24T21:22:17.404Z,3.60
2023-07-24T21:24:44.018Z,3.47
2023-07-24T21:27:10.665Z,3.17
2023-07-24T21:29:37.273Z,3.25
2023-07-24T21:32:04.826Z,2.88
2023-07-24T21:34:31.545Z,3.85
2023-07-24T21:36:58.215Z,3.15
2023-07-24T21:39:24.836Z,3.45
2023-07-24T21:41:51.571Z,2.97
2023-07-24T21:44:18.366Z,3.67
2023-07-24T21:46:45.187Z,3.30
2023-07-24T21:49:11.802Z,3.65
2023-07-24T21:51:38.436Z,2.97
2023-07-24T21:54:05.084Z,3.10
2023-07-24T21:56:32.076Z,3.33
2023-07-24T21:58:59.694Z,3.25
2023-07-24T22:01:26.491Z,2.90
2023-07-24T22:03:53.235Z,2.70
2023-07-24T22:06:20.021Z,2.50
2023-07-24T22:08:46.827Z,3.10
2023-07-24T22:11:15.180Z,2.10
2023-07-24T22:13:44.439Z,2.80
2023-07-24T22:16:12.233Z,2.55
2023-07-24T22:18:38.870Z,2.42
2023-07-24T22:21:05.811Z,2.55
2023-07-24T22:23:33.526Z,3.05
2023-07-24T22:26:03.633Z,3.15
2023-07-24T22:28:30.359Z,2.38
2023-07-24T22:30:56.998Z,2.67
2023-07-24T22:33:23.921Z,3.22
2023-07-24T22:35:58.481Z,3.03
2023-07-24T22:38:25.104Z,3.50
2023-07-24T22:40:51.866Z,2.95
2023-07-24T22:43:18.723Z,2.50
2023-07-24T22:45:45.442Z,3.50
2023-07-24T22:48:12.465Z,2.40
2023-07-24T22:50:39.115Z,2.47
2023-07-24T22:53:06.317Z,2.70
2023-07-24T22:55:32.947Z,3.10
2023-07-24T22:57:59.698Z,2.78
2023-07-24T23:00:26.538Z,2.90
2023-07-24T23:02:53.441Z,2.13
2023-07-24T23:05:22.554Z,2.50
2023-07-24T23:07:53.932Z,3.33
2023-07-24T23:10:20.680Z,3.25
2023-07-24T23:12:48.479Z,2.88
2023-07-24T23:15:15.407Z,3.00
2023-07-24T23:17:42.065Z,2.88
2023-07-24T23:20:09.547Z,2.53
2023-07-24T23:22:38.600Z,3.28
2023-07-24T23:25:05.632Z,2.97
2023-07-24T23:27:33.054Z,3.90
2023-07-24T23:29:59.724Z,3.20
2023-07-24T23:32:26.523Z,2.72
2023-07-24T23:34:53.694Z,2.15
2023-07-24T23:37:20.408Z,2.58
2023-07-24T23:39:49.877Z,2.67
2023-07-24T23:42:16.604Z,3.30
2023-07-24T23:44:43.302Z,2.75
2023-07-24T23:47:09.956Z,2.60
2023-07-24T23:49:36.598Z,2.97
2023-07-24T23:52:03.821Z,3.25
2023-07-24T23:54:30.901Z,3.00
2023-07-24T23:56:57.649Z,3.45
2023-07-24T23:59:24.298Z,2.90
